sensor_id;sensor_type;location;lat;lon;timestamp;pressure;altitude;pressure_sealevel;temperature;humidity
46836;BME280;32573;51.290;6.926;2024-01-15T00:01:22;98914.94;;;2.31;100.00
46836;BME280;32573;51.290;6.926;2024-01-15T00:03:51;98917.53;;;2.31;100.00
46836;BME280;32573;51.290;6.926;2024-01-15T00:06:19;98908.97;;;2.32;100.00
46836;BME280;32573;51.290;6.926;2024-01-15T00:08:48;98899.56;;;2.34;100.00
46836;BME280;32573;51.290;6.926;2024-01-15T00:11:18;98901.28;;;2.34;100.00
46836;BME280;32573;51.290;6.926;2024-01-15T00:13:46;98897.81;;;2.33;100.00
46836;BME280;32573;51.290;6.926;2024-01-15T00:16:15;98910.72;;;2.33;100.00
46836;BME280;32573;51.290;6.926;2024-01-15T00:18:43;98900.28;;;2.30;100.00
46836;BME280;32573;51.290;6.926;2024-01-15T00:21:12;98900.16;;;2.27;100.00
46836;BME280;32573;51.290;6.926;2024-01-15T00:23:42;98891.47;;;2.25;100.00
46836;BME280;32573;51.290;6.926;2024-01-15T00:26:11;98887.19;;;2.26;100.00
46836;BME280;32573;51.290;6.926;2024-01-15T00:28:41;98885.56;;;2.28;100.00
46836;BME280;32573;51.290;6.926;2024-01-15T00:31:10;98871.81;;;2.29;100.00
46836;BME280;32573;51.290;6.926;2024-01-15T00:33:38;98882.97;;;2.28;100.00
46836;BME280;32573;51.290;6.926;2024-01-15T00:36:08;98874.34;;;2.27;100.00
46836;BME280;32573;51.290;6.926;2024-01-15T00:38:36;98864.03;;;2.27;100.00
46836;BME280;32573;51.290;6.926;2024-01-15T00:41:04;98863.19;;;2.28;100.00
46836;BME280;32573;51.290;6.926;2024-01-15T00:43:33;98853.81;;;2.30;100.00
46836;BME280;32573;51.290;6.926;2024-01-15T00:46:03;98861.59;;;2.32;100.00
46836;BME280;32573;51.290;6.926;2024-01-15T00:48:32;98861.59;;;2.32;100.00
46836;BME280;32573;51.290;6.926;2024-01-15T00:51:01;98846.94;;;2.31;100.00
46836;BME280;32573;51.290;6.926;2024-01-15T00:53:29;98862.50;;;2.32;100.00
46836;BME280;32573;51.290;6.926;2024-01-15T00:55:58;98853.81;;;2.30;100.00
46836;BME280;32573;51.290;6.926;2024-01-15T00:58:26;98864.16;;;2.30;100.00
46836;BME280;32573;51.290;6.926;2024-01-15T01:00:54;98855.56;;;2.31;100.00
46836;BME280;32573;51.290;6.926;2024-01-15T01:03:24;98858.16;;;2.31;100.00
46836;BME280;32573;51.290;6.926;2024-01-15T01:05:53;98853.06;;;2.33;100.00
46836;BME280;32573;51.290;6.926;2024-01-15T01:08:21;98872.00;;;2.33;100.00
46836;BME280;32573;51.290;6.926;2024-01-15T01:10:50;98853.09;;;2.34;100.00
46836;BME280;32573;51.290;6.926;2024-01-15T01:13:18;98849.59;;;2.32;100.00
46836;BME280;32573;51.290;6.926;2024-01-15T01:15:46;98854.75;;;2.32;100.00
46836;BME280;32573;51.290;6.926;2024-01-15T01:18:15;98848.78;;;2.33;100.00
46836;BME280;32573;51.290;6.926;2024-01-15T01:20:45;98861.75;;;2.35;100.00
46836;BME280;32573;51.290;6.926;2024-01-15T01:23:13;98847.94;;;2.34;100.00
46836;BME280;32573;51.290;6.926;2024-01-15T01:25:41;98834.22;;;2.35;100.00
46836;BME280;32573;51.290;6.926;2024-01-15T01:28:10;98841.09;;;2.35;100.00
46836;BME280;32573;51.290;6.926;2024-01-15T01:30:38;98837.59;;;2.34;100.00
46836;BME280;32573;51.290;6.926;2024-01-15T01:33:06;98840.34;;;2.37;100.00
46836;BME280;32573;51.290;6.926;2024-01-15T01:35:36;98842.94;;;2.39;100.00
46836;BME280;32573;51.290;6.926;2024-01-15T01:38:05;98850.78;;;2.41;100.00
46836;BME280;32573;51.290;6.926;2024-01-15T01:40:34;98845.59;;;2.41;100.00
46836;BME280;32573;51.290;6.926;2024-01-15T01:43:02;98855.06;;;2.40;100.00
46836;BME280;32573;51.290;6.926;2024-01-15T01:45:31;98861.84;;;2.38;100.00
46836;BME280;32573;51.290;6.926;2024-01-15T01:48:00;98847.25;;;2.38;100.00
46836;BME280;32573;51.290;6.926;2024-01-15T01:50:29;98854.13;;;2.38;100.00
46836;BME280;32573;51.290;6.926;2024-01-15T01:52:58;98845.50;;;2.37;100.00
46836;BME280;32573;51.290;6.926;2024-01-15T01:55:29;98849.81;;;2.38;100.00
46836;BME280;32573;51.290;6.926;2024-01-15T01:58:00;98849.81;;;2.38;100.00
46836;BME280;32573;51.290;6.926;2024-01-15T02:00:30;98853.34;;;2.41;100.00
46836;BME280;32573;51.290;6.926;2024-01-15T02:02:59;98849.00;;;2.40;100.00
46836;BME280;32573;51.290;6.926;2024-01-15T02:05:28;98853.34;;;2.41;100.00
46836;BME280;32573;51.290;6.926;2024-01-15T02:07:58;98859.38;;;2.41;100.00
46836;BME280;32573;51.290;6.926;2024-01-15T02:10:26;98856.00;;;2.42;100.00
46836;BME280;32573;51.290;6.926;2024-01-15T02:12:56;98861.22;;;2.44;100.00
46836;BME280;32573;51.290;6.926;2024-01-15T02:15:24;98867.22;;;2.43;100.00
46836;BME280;32573;51.290;6.926;2024-01-15T02:17:57;98851.72;;;2.43;100.00
46836;BME280;32573;51.290;6.926;2024-01-15T02:20:26;98856.88;;;2.43;100.00
46836;BME280;32573;51.290;6.926;2024-01-15T02:23:01;98850.94;;;2.45;100.00
46836;BME280;32573;51.290;6.926;2024-01-15T02:25:29;98856.16;;;2.47;100.00
46836;BME280;32573;51.290;6.926;2024-01-15T02:27:58;98851.00;;;2.47;100.00
46836;BME280;32573;51.290;6.926;2024-01-15T02:30:28;98850.19;;;2.48;100.00
46836;BME280;32573;51.290;6.926;2024-01-15T02:32:57;98850.22;;;2.49;100.00
46836;BME280;32573;51.290;6.926;2024-01-15T02:35:25;98856.31;;;2.50;100.00
46836;BME280;32573;51.290;6.926;2024-01-15T02:37:54;98854.63;;;2.52;100.00
46836;BME280;32573;51.290;6.926;2024-01-15T02:40:24;98860.75;;;2.54;100.00
46836;BME280;32573;51.290;6.926;2024-01-15T02:42:52;98860.75;;;2.54;100.00
46836;BME280;32573;51.290;6.926;2024-01-15T02:45:21;98853.81;;;2.53;100.00
46836;BME280;32573;51.290;6.926;2024-01-15T02:47:49;98854.63;;;2.52;100.00
46836;BME280;32573;51.290;6.926;2024-01-15T02:50:18;98855.47;;;2.51;100.00
46836;BME280;32573;51.290;6.926;2024-01-15T02:52:46;98856.41;;;2.53;100.00
46836;BME280;32573;51.290;6.926;2024-01-15T02:55:14;98854.69;;;2.53;100.00
46836;BME280;32573;51.290;6.926;2024-01-15T02:57:44;98856.44;;;2.54;100.00
46836;BME280;32573;51.290;6.926;2024-01-15T03:00:13;98858.25;;;2.57;100.00
46836;BME280;32573;51.290;6.926;2024-01-15T03:02:44;98844.47;;;2.56;100.00
46836;BME280;32573;51.290;6.926;2024-01-15T03:05:15;98865.22;;;2.58;100.00
46836;BME280;32573;51.290;6.926;2024-01-15T03:07:43;98847.03;;;2.55;100.00
46836;BME280;32573;51.290;6.926;2024-01-15T03:10:11;98849.59;;;2.55;100.00
46836;BME280;32573;51.290;6.926;2024-01-15T03:12:40;98851.28;;;2.54;100.00
46836;BME280;32573;51.290;6.926;2024-01-15T03:15:09;98853.94;;;2.56;100.00
46836;BME280;32573;51.290;6.926;2024-01-15T03:17:38;98844.56;;;2.58;100.00
46836;BME280;32573;51.290;6.926;2024-01-15T03:20:07;98846.28;;;2.59;100.00
46836;BME280;32573;51.290;6.926;2024-01-15T03:22:35;98848.94;;;2.61;100.00
46836;BME280;32573;51.290;6.926;2024-01-15T03:25:05;98852.34;;;2.59;100.00
46836;BME280;32573;51.290;6.926;2024-01-15T03:27:34;98853.25;;;2.60;100.00
46836;BME280;32573;51.290;6.926;2024-01-15T03:30:03;98849.81;;;2.61;100.00
46836;BME280;32573;51.290;6.926;2024-01-15T03:32:33;98846.44;;;2.62;100.00
46836;BME280;32573;51.290;6.926;2024-01-15T03:35:01;98849.03;;;2.62;100.00
46836;BME280;32573;51.290;6.926;2024-01-15T03:37:30;98848.06;;;2.60;100.00
46836;BME280;32573;51.290;6.926;2024-01-15T03:39:58;98849.81;;;2.61;100.00
46836;BME280;32573;51.290;6.926;2024-01-15T03:42:27;98842.00;;;2.59;100.00
46836;BME280;32573;51.290;6.926;2024-01-15T03:44:55;98844.66;;;2.61;100.00
46836;BME280;32573;51.290;6.926;2024-01-15T03:47:23;98844.66;;;2.61;100.00
46836;BME280;32573;51.290;6.926;2024-01-15T03:49:53;98845.59;;;2.63;100.00
46836;BME280;32573;51.290;6.926;2024-01-15T03:52:21;98845.66;;;2.65;100.00
46836;BME280;32573;51.290;6.926;2024-01-15T03:54:50;98842.25;;;2.66;100.00
46836;BME280;32573;51.290;6.926;2024-01-15T03:57:18;98837.97;;;2.66;100.00
46836;BME280;32573;51.290;6.926;2024-01-15T03:59:47;98832.78;;;2.66;100.00
46836;BME280;32573;51.290;6.926;2024-01-15T04:02:15;98834.56;;;2.67;100.00
46836;BME280;32573;51.290;6.926;2024-01-15T04:04:43;98838.06;;;2.69;100.00
46836;BME280;32573;51.290;6.926;2024-01-15T04:07:14;98827.72;;;2.69;100.00
46836;BME280;32573;51.290;6.926;2024-01-15T04:09:42;98832.91;;;2.69;100.00
46836;BME280;32573;51.290;6.926;2024-01-15T04:12:10;98823.34;;;2.67;100.00
46836;BME280;32573;51.290;6.926;2024-01-15T04:14:39;98824.25;;;2.67;100.00
46836;BME280;32573;51.290;6.926;2024-01-15T04:17:07;98814.72;;;2.66;100.00
46836;BME280;32573;51.290;6.926;2024-01-15T04:19:35;98808.75;;;2.67;100.00
46836;BME280;32573;51.290;6.926;2024-01-15T04:22:04;98804.44;;;2.68;100.00
46836;BME280;32573;51.290;6.926;2024-01-15T04:24:33;98801.81;;;2.66;100.00
46836;BME280;32573;51.290;6.926;2024-01-15T04:27:02;98813.00;;;2.67;100.00
46836;BME280;32573;51.290;6.926;2024-01-15T04:29:30;98801.88;;;2.68;100.00
46836;BME280;32573;51.290;6.926;2024-01-15T04:31:59;98804.50;;;2.69;100.00
46836;BME280;32573;51.290;6.926;2024-01-15T04:34:27;98804.56;;;2.71;100.00
46836;BME280;32573;51.290;6.926;2024-01-15T04:36:56;98796.75;;;2.69;100.00
46836;BME280;32573;51.290;6.926;2024-01-15T04:39:24;98793.25;;;2.67;100.00
46836;BME280;32573;51.290;6.926;2024-01-15T04:41:54;98800.06;;;2.65;100.00
46836;BME280;32573;51.290;6.926;2024-01-15T04:44:22;98800.94;;;2.66;100.00
46836;BME280;32573;51.290;6.926;2024-01-15T04:46:51;98787.94;;;2.64;100.00
46836;BME280;32573;51.290;6.926;2024-01-15T04:49:19;98789.72;;;2.65;100.00
46836;BME280;32573;51.290;6.926;2024-01-15T04:51:48;98786.31;;;2.66;100.00
46836;BME280;32573;51.290;6.926;2024-01-15T04:54:16;98788.88;;;2.66;100.00
46836;BME280;32573;51.290;6.926;2024-01-15T04:56:45;98793.25;;;2.67;100.00
46836;BME280;32573;51.290;6.926;2024-01-15T04:59:16;98796.75;;;2.69;100.00
46836;BME280;32573;51.290;6.926;2024-01-15T05:01:45;98789.00;;;2.69;100.00
46836;BME280;32573;51.290;6.926;2024-01-15T05:04:13;98788.19;;;2.70;100.00
46836;BME280;32573;51.290;6.926;2024-01-15T05:06:42;98795.09;;;2.71;100.00
46836;BME280;32573;51.290;6.926;2024-01-15T05:09:13;98781.25;;;2.69;100.00
46836;BME280;32573;51.290;6.926;2024-01-15T05:11:41;98787.19;;;2.67;100.00
46836;BME280;32573;51.290;6.926;2024-01-15T05:14:10;98784.56;;;2.65;100.00
46836;BME280;32573;51.290;6.926;2024-01-15T05:16:39;98782.75;;;2.63;100.00
46836;BME280;32573;51.290;6.926;2024-01-15T05:19:08;98775.75;;;2.60;100.00
46836;BME280;32573;51.290;6.926;2024-01-15T05:21:36;98779.28;;;2.62;100.00
46836;BME280;32573;51.290;6.926;2024-01-15T05:24:05;98768.97;;;2.62;100.00
46836;BME280;32573;51.290;6.926;2024-01-15T05:26:33;98781.81;;;2.61;100.00
46836;BME280;32573;51.290;6.926;2024-01-15T05:29:02;98774.84;;;2.59;100.00
46836;BME280;32573;51.290;6.926;2024-01-15T05:31:30;98771.41;;;2.59;100.00
46836;BME280;32573;51.290;6.926;2024-01-15T05:34:00;98773.97;;;2.59;100.00
46836;BME280;32573;51.290;6.926;2024-01-15T05:36:29;98773.19;;;2.60;100.00
46836;BME280;32573;51.290;6.926;2024-01-15T05:38:57;98774.84;;;2.59;100.00
46836;BME280;32573;51.290;6.926;2024-01-15T05:41:25;98765.44;;;2.60;100.00
46836;BME280;32573;51.290;6.926;2024-01-15T05:43:54;98766.31;;;2.61;100.00
46836;BME280;32573;51.290;6.926;2024-01-15T05:46:22;98762.88;;;2.62;100.00
46836;BME280;32573;51.290;6.926;2024-01-15T05:48:50;98767.19;;;2.61;100.00
46836;BME280;32573;51.290;6.926;2024-01-15T05:51:20;98757.72;;;2.62;100.00
46836;BME280;32573;51.290;6.926;2024-01-15T05:53:49;98756.09;;;2.64;100.00
46836;BME280;32573;51.290;6.926;2024-01-15T05:56:18;98763.91;;;2.65;100.00
46836;BME280;32573;51.290;6.926;2024-01-15T05:58:47;98757.03;;;2.66;100.00
46836;BME280;32573;51.290;6.926;2024-01-15T06:01:15;98751.94;;;2.67;100.00
46836;BME280;32573;51.290;6.926;2024-01-15T06:03:44;98747.66;;;2.69;100.00
46836;BME280;32573;51.290;6.926;2024-01-15T06:06:12;98743.34;;;2.68;100.00
46836;BME280;32573;51.290;6.926;2024-01-15T06:08:42;98746.75;;;2.67;100.00
46836;BME280;32573;51.290;6.926;2024-01-15T06:11:10;98740.66;;;2.65;100.00
46836;BME280;32573;51.290;6.926;2024-01-15T06:13:39;98739.72;;;2.63;100.00
46836;BME280;32573;51.290;6.926;2024-01-15T06:16:13;98745.75;;;2.64;100.00
46836;BME280;32573;51.290;6.926;2024-01-15T06:18:42;98749.09;;;2.61;100.00
46836;BME280;32573;51.290;6.926;2024-01-15T06:21:11;98746.53;;;2.61;100.00
46836;BME280;32573;51.290;6.926;2024-01-15T06:23:41;98736.09;;;2.58;100.00
46836;BME280;32573;51.290;6.926;2024-01-15T06:26:11;98735.22;;;2.57;100.00
46836;BME280;32573;51.290;6.926;2024-01-15T06:28:40;98724.91;;;2.59;100.00
46836;BME280;32573;51.290;6.926;2024-01-15T06:31:08;98737.97;;;2.62;100.00
46836;BME280;32573;51.290;6.926;2024-01-15T06:33:36;98719.88;;;2.62;100.00
46836;BME280;32573;51.290;6.926;2024-01-15T06:36:06;98725.09;;;2.64;100.00
46836;BME280;32573;51.290;6.926;2024-01-15T06:38:34;98730.22;;;2.62;100.00
46836;BME280;32573;51.290;6.926;2024-01-15T06:41:04;98726.72;;;2.62;100.00
46836;BME280;32573;51.290;6.926;2024-01-15T06:43:33;98735.41;;;2.64;100.00
46836;BME280;32573;51.290;6.926;2024-01-15T06:46:01;98738.00;;;2.64;100.00
46836;BME280;32573;51.290;6.926;2024-01-15T06:48:34;98737.19;;;2.65;100.00
46836;BME280;32573;51.290;6.926;2024-01-15T06:51:03;98738.06;;;2.65;100.00
46836;BME280;32573;51.290;6.926;2024-01-15T06:53:32;98740.66;;;2.65;100.00
46836;BME280;32573;51.290;6.926;2024-01-15T06:56:00;98743.34;;;2.68;100.00
46836;BME280;32573;51.290;6.926;2024-01-15T06:58:30;98739.81;;;2.66;100.00
46836;BME280;32573;51.290;6.926;2024-01-15T07:00:59;98743.25;;;2.65;100.00
46836;BME280;32573;51.290;6.926;2024-01-15T07:03:28;98741.47;;;2.64;100.00
46836;BME280;32573;51.290;6.926;2024-01-15T07:05:56;98745.72;;;2.62;100.00
46836;BME280;32573;51.290;6.926;2024-01-15T07:08:24;98740.56;;;2.62;100.00
46836;BME280;32573;51.290;6.926;2024-01-15T07:10:53;98741.34;;;2.61;100.00
46836;BME280;32573;51.290;6.926;2024-01-15T07:13:21;98735.25;;;2.59;100.00
46836;BME280;32573;51.290;6.926;2024-01-15T07:15:51;98732.66;;;2.59;100.00
46836;BME280;32573;51.290;6.926;2024-01-15T07:18:19;98737.06;;;2.62;100.00
46836;BME280;32573;51.290;6.926;2024-01-15T07:20:48;98725.75;;;2.58;100.00
46836;BME280;32573;51.290;6.926;2024-01-15T07:23:16;98729.16;;;2.57;100.00
46836;BME280;32573;51.290;6.926;2024-01-15T07:25:45;98726.63;;;2.58;100.00
46836;BME280;32573;51.290;6.926;2024-01-15T07:28:13;98737.84;;;2.59;100.00
46836;BME280;32573;51.290;6.926;2024-01-15T07:30:42;98730.91;;;2.58;100.00
46836;BME280;32573;51.290;6.926;2024-01-15T07:33:13;98737.84;;;2.59;100.00
46836;BME280;32573;51.290;6.926;2024-01-15T07:35:42;98729.22;;;2.58;100.00
46836;BME280;32573;51.290;6.926;2024-01-15T07:38:11;98732.66;;;2.59;100.00
46836;BME280;32573;51.290;6.926;2024-01-15T07:40:39;98728.44;;;2.61;100.00
46836;BME280;32573;51.290;6.926;2024-01-15T07:43:08;98726.81;;;2.63;100.00
46836;BME280;32573;51.290;6.926;2024-01-15T07:45:36;98722.47;;;2.62;100.00
46836;BME280;32573;51.290;6.926;2024-01-15T07:48:04;98724.22;;;2.63;100.00
46836;BME280;32573;51.290;6.926;2024-01-15T07:50:34;98721.69;;;2.65;100.00
46836;BME280;32573;51.290;6.926;2024-01-15T07:53:03;98724.31;;;2.66;100.00
46836;BME280;32573;51.290;6.926;2024-01-15T07:55:32;98720.94;;;2.67;100.00
46836;BME280;32573;51.290;6.926;2024-01-15T07:58:00;98725.25;;;2.68;100.00
46836;BME280;32573;51.290;6.926;2024-01-15T08:00:42;98722.59;;;2.67;100.00
46836;BME280;32573;51.290;6.926;2024-01-15T08:03:11;98720.94;;;2.67;100.00
46836;BME280;32573;51.290;6.926;2024-01-15T08:05:43;98720.78;;;2.64;100.00
46836;BME280;32573;51.290;6.926;2024-01-15T08:08:12;98717.41;;;2.65;100.00
46836;BME280;32573;51.290;6.926;2024-01-15T08:10:40;98721.69;;;2.65;100.00
46836;BME280;32573;51.290;6.926;2024-01-15T08:13:08;98719.88;;;2.62;100.00
46836;BME280;32573;51.290;6.926;2024-01-15T08:15:37;98716.41;;;2.62;100.00
46836;BME280;32573;51.290;6.926;2024-01-15T08:18:05;98720.69;;;2.61;100.00
46836;BME280;32573;51.290;6.926;2024-01-15T08:20:34;98710.25;;;2.58;100.00
46836;BME280;32573;51.290;6.926;2024-01-15T08:23:04;98709.25;;;2.54;100.00
46836;BME280;32573;51.290;6.926;2024-01-15T08:25:32;98717.84;;;2.53;100.00
46836;BME280;32573;51.290;6.926;2024-01-15T08:28:01;98717.78;;;2.52;100.00
46836;BME280;32573;51.290;6.926;2024-01-15T08:30:29;98709.94;;;2.49;100.00
46836;BME280;32573;51.290;6.926;2024-01-15T08:32:58;98708.19;;;2.48;100.00
46836;BME280;32573;51.290;6.926;2024-01-15T08:35:34;98712.50;;;2.49;100.00
46836;BME280;32573;51.290;6.926;2024-01-15T08:38:04;98710.78;;;2.49;100.00
46836;BME280;32573;51.290;6.926;2024-01-15T08:40:33;98709.94;;;2.49;100.00
46836;BME280;32573;51.290;6.926;2024-01-15T08:43:01;98708.19;;;2.48;100.00
46836;BME280;32573;51.290;6.926;2024-01-15T08:45:30;98716.69;;;2.45;100.00
46836;BME280;32573;51.290;6.926;2024-01-15T08:47:59;98712.34;;;2.44;100.00
46836;BME280;32573;51.290;6.926;2024-01-15T08:50:29;98714.13;;;2.45;100.00
46836;BME280;32573;51.290;6.926;2024-01-15T08:52:57;98723.44;;;2.42;100.00
46836;BME280;32573;51.290;6.926;2024-01-15T08:55:27;98731.13;;;2.40;100.00
46836;BME280;32573;51.290;6.926;2024-01-15T08:57:55;98723.31;;;2.38;100.00
46836;BME280;32573;51.290;6.926;2024-01-15T09:00:24;98726.75;;;2.37;100.00
46836;BME280;32573;51.290;6.926;2024-01-15T09:02:52;98723.22;;;2.35;100.00
46836;BME280;32573;51.290;6.926;2024-01-15T09:05:20;98736.03;;;2.32;100.00
46836;BME280;32573;51.290;6.926;2024-01-15T09:07:49;98750.69;;;2.33;100.00
46836;BME280;32573;51.290;6.926;2024-01-15T09:10:19;98738.59;;;2.32;100.00
46836;BME280;32573;51.290;6.926;2024-01-15T09:12:49;98745.50;;;2.33;100.00
46836;BME280;32573;51.290;6.926;2024-01-15T09:15:17;98748.03;;;2.32;100.00
46836;BME280;32573;51.290;6.926;2024-01-15T09:17:47;98745.41;;;2.30;100.00
46836;BME280;32573;51.290;6.926;2024-01-15T09:20:16;98749.69;;;2.30;100.00
46836;BME280;32573;51.290;6.926;2024-01-15T09:22:44;98750.56;;;2.30;100.00
46836;BME280;32573;51.290;6.926;2024-01-15T09:25:13;98752.31;;;2.31;100.00
46836;BME280;32573;51.290;6.926;2024-01-15T09:27:41;98753.19;;;2.32;100.00
46836;BME280;32573;51.290;6.926;2024-01-15T09:30:12;98753.16;;;2.30;100.00
46836;BME280;32573;51.290;6.926;2024-01-15T09:32:41;98750.47;;;2.27;100.00
46836;BME280;32573;51.290;6.926;2024-01-15T09:35:10;98756.38;;;2.25;100.00
46836;BME280;32573;51.290;6.926;2024-01-15T09:37:39;98752.00;;;2.22;100.00
46836;BME280;32573;51.290;6.926;2024-01-15T09:40:14;98762.31;;;2.22;100.00
46836;BME280;32573;51.290;6.926;2024-01-15T09:42:44;98757.16;;;2.22;100.00
46836;BME280;32573;51.290;6.926;2024-01-15T09:45:15;98753.75;;;2.23;100.00
46836;BME280;32573;51.290;6.926;2024-01-15T09:47:44;98764.94;;;2.24;100.00
46836;BME280;32573;51.290;6.926;2024-01-15T09:50:13;98765.03;;;2.27;100.00
46836;BME280;32573;51.290;6.926;2024-01-15T09:52:43;98778.03;;;2.28;100.00
46836;BME280;32573;51.290;6.926;2024-01-15T09:55:13;98769.44;;;2.29;100.00
46836;BME280;32573;51.290;6.926;2024-01-15T09:57:44;98765.13;;;2.28;100.00
46836;BME280;32573;51.290;6.926;2024-01-15T10:00:17;98764.34;;;2.31;100.00
46836;BME280;32573;51.290;6.926;2024-01-15T10:02:46;98762.75;;;2.34;100.00
46836;BME280;32573;51.290;6.926;2024-01-15T10:05:16;98765.41;;;2.36;100.00
46836;BME280;32573;51.290;6.926;2024-01-15T10:07:45;98761.09;;;2.36;100.00
46836;BME280;32573;51.290;6.926;2024-01-15T10:10:15;98772.31;;;2.37;100.00
46836;BME280;32573;51.290;6.926;2024-01-15T10:12:44;98770.56;;;2.36;100.00
46836;BME280;32573;51.290;6.926;2024-01-15T10:15:12;98767.97;;;2.36;100.00
46836;BME280;32573;51.290;6.926;2024-01-15T10:17:42;98766.28;;;2.36;100.00
46836;BME280;32573;51.290;6.926;2024-01-15T10:20:11;98769.78;;;2.38;100.00
46836;BME280;32573;51.290;6.926;2024-01-15T10:22:40;98766.44;;;2.41;100.00
46836;BME280;32573;51.290;6.926;2024-01-15T10:25:11;98775.06;;;2.42;100.00
46836;BME280;32573;51.290;6.926;2024-01-15T10:27:40;98768.25;;;2.44;100.00
46836;BME280;32573;51.290;6.926;2024-01-15T10:30:10;98765.75;;;2.45;100.00
46836;BME280;32573;51.290;6.926;2024-01-15T10:32:57;98770.06;;;2.46;100.00
46836;BME280;32573;51.290;6.926;2024-01-15T10:35:27;98760.59;;;2.45;100.00
46836;BME280;32573;51.290;6.926;2024-01-15T10:37:55;98758.88;;;2.46;100.00
46836;BME280;32573;51.290;6.926;2024-01-15T10:40:24;98756.28;;;2.46;100.00
46836;BME280;32573;51.290;6.926;2024-01-15T10:42:52;98747.72;;;2.47;100.00
46836;BME280;32573;51.290;6.926;2024-01-15T10:45:21;98753.78;;;2.47;100.00
46836;BME280;32573;51.290;6.926;2024-01-15T10:47:53;98758.03;;;2.47;100.00
46836;BME280;32573;51.290;6.926;2024-01-15T10:50:26;98754.66;;;2.48;100.00
46836;BME280;32573;51.290;6.926;2024-01-15T10:52:55;98761.56;;;2.49;100.00
46836;BME280;32573;51.290;6.926;2024-01-15T10:55:25;98766.72;;;2.49;100.00
46836;BME280;32573;51.290;6.926;2024-01-15T10:57:54;98767.50;;;2.46;100.00
46836;BME280;32573;51.290;6.926;2024-01-15T11:00:23;98771.78;;;2.46;100.00
46836;BME280;32573;51.290;6.926;2024-01-15T11:02:54;98774.44;;;2.47;100.00
46836;BME280;32573;51.290;6.926;2024-01-15T11:05:23;98781.34;;;2.48;100.00
46836;BME280;32573;51.290;6.926;2024-01-15T11:07:54;98777.06;;;2.49;100.00
46836;BME280;32573;51.290;6.926;2024-01-15T11:10:39;98777.06;;;2.49;100.00
46836;BME280;32573;51.290;6.926;2024-01-15T11:13:09;98772.00;;;2.52;100.00
46836;BME280;32573;51.290;6.926;2024-01-15T11:16:01;98779.03;;;2.56;100.00
46836;BME280;32573;51.290;6.926;2024-01-15T11:18:34;98771.38;;;2.57;100.00
46836;BME280;32573;51.290;6.926;2024-01-15T11:21:20;98759.25;;;2.56;100.00
46836;BME280;32573;51.290;6.926;2024-01-15T11:23:52;98759.31;;;2.58;100.00
46836;BME280;32573;51.290;6.926;2024-01-15T11:26:35;98772.34;;;2.61;100.00
46836;BME280;32573;51.290;6.926;2024-01-15T11:29:05;98769.84;;;2.63;100.00
46836;BME280;32573;51.290;6.926;2024-01-15T11:32:02;98772.44;;;2.64;100.00
46836;BME280;32573;51.290;6.926;2024-01-15T11:34:56;98768.13;;;2.63;100.00
46836;BME280;32573;51.290;6.926;2024-01-15T11:37:58;98758.66;;;2.64;100.00
46836;BME280;32573;51.290;6.926;2024-01-15T11:40:38;98766.47;;;2.65;100.00
46836;BME280;32573;51.290;6.926;2024-01-15T11:43:06;98765.59;;;2.65;100.00
46836;BME280;32573;51.290;6.926;2024-01-15T11:45:37;98767.41;;;2.67;100.00
46836;BME280;32573;51.290;6.926;2024-01-15T11:48:11;98766.66;;;2.70;100.00
46836;BME280;32573;51.290;6.926;2024-01-15T11:50:42;98756.34;;;2.71;100.00
46836;BME280;32573;51.290;6.926;2024-01-15T11:53:32;98759.81;;;2.72;100.00
46836;BME280;32573;51.290;6.926;2024-01-15T11:56:03;98754.66;;;2.72;100.00
46836;BME280;32573;51.290;6.926;2024-01-15T11:58:35;98769.34;;;2.73;100.00
46836;BME280;32573;51.290;6.926;2024-01-15T12:01:04;98758.22;;;2.75;100.00
46836;BME280;32573;51.290;6.926;2024-01-15T12:03:33;98764.38;;;2.79;100.00
46836;BME280;32573;51.290;6.926;2024-01-15T12:06:05;98764.44;;;2.80;100.00
46836;BME280;32573;51.290;6.926;2024-01-15T12:08:34;98761.03;;;2.81;100.00
46836;BME280;32573;51.290;6.926;2024-01-15T12:11:06;98759.38;;;2.84;100.00
46836;BME280;32573;51.290;6.926;2024-01-15T12:13:35;98759.38;;;2.84;100.00
46836;BME280;32573;51.290;6.926;2024-01-15T12:16:04;98758.66;;;2.88;100.00
46836;BME280;32573;51.290;6.926;2024-01-15T12:18:32;98770.81;;;2.90;100.00
46836;BME280;32573;51.290;6.926;2024-01-15T12:21:03;98764.78;;;2.90;100.00
46836;BME280;32573;51.290;6.926;2024-01-15T12:23:33;98770.81;;;2.90;100.00
46836;BME280;32573;51.290;6.926;2024-01-15T12:26:01;98768.22;;;2.90;100.00
46836;BME280;32573;51.290;6.926;2024-01-15T12:28:30;98769.16;;;2.92;100.00
46836;BME280;32573;51.290;6.926;2024-01-15T12:30:59;98764.81;;;2.91;100.00
46836;BME280;32573;51.290;6.926;2024-01-15T12:33:33;98776.84;;;2.91;100.00
46836;BME280;32573;51.290;6.926;2024-01-15T12:36:03;98769.94;;;2.90;100.00
46836;BME280;32573;51.290;6.926;2024-01-15T12:38:32;98769.94;;;2.90;100.00
46836;BME280;32573;51.290;6.926;2024-01-15T12:41:00;98774.22;;;2.89;100.00
46836;BME280;32573;51.290;6.926;2024-01-15T12:43:29;98774.28;;;2.91;100.00
46836;BME280;32573;51.290;6.926;2024-01-15T12:45:57;98777.78;;;2.93;100.00
46836;BME280;32573;51.290;6.926;2024-01-15T12:48:26;98774.34;;;2.92;100.00
46836;BME280;32573;51.290;6.926;2024-01-15T12:50:55;98781.31;;;2.95;100.00
46836;BME280;32573;51.290;6.926;2024-01-15T12:53:25;98785.66;;;2.96;100.00
46836;BME280;32573;51.290;6.926;2024-01-15T12:55:54;98780.47;;;2.96;100.00
46836;BME280;32573;51.290;6.926;2024-01-15T12:58:22;98783.06;;;2.96;100.00
46836;BME280;32573;51.290;6.926;2024-01-15T13:00:50;98776.19;;;2.96;100.00
46836;BME280;32573;51.290;6.926;2024-01-15T13:03:19;98785.75;;;2.99;100.00
46836;BME280;32573;51.290;6.926;2024-01-15T13:05:47;98784.09;;;3.01;100.00
46836;BME280;32573;51.290;6.926;2024-01-15T13:08:17;98780.75;;;3.03;100.00
46836;BME280;32573;51.290;6.926;2024-01-15T13:10:46;98779.03;;;3.04;100.00
46836;BME280;32573;51.290;6.926;2024-01-15T13:13:15;98791.16;;;3.05;100.00